sensor_id;sensor_type;location;lat;lon;timestamp;P1;durP1;ratioP1;P2;durP2;ratioP2
3647;SDS011;1840;48.892;15.312;2023-06-05T00:00:08;11.67;;;7.27;;
3647;SDS011;1840;48.892;15.312;2023-06-05T00:02:37;12.80;;;7.33;;
3647;SDS011;1840;48.892;15.312;2023-06-05T00:05:07;15.90;;;7.60;;
3647;SDS011;1840;48.892;15.312;2023-06-05T00:07:36;12.80;;;7.07;;
3647;SDS011;1840;48.892;15.312;2023-06-05T00:10:05;14.03;;;7.60;;
3647;SDS011;1840;48.892;15.312;2023-06-05T00:12:36;11.40;;;7.25;;
3647;SDS011;1840;48.892;15.312;2023-06-05T00:15:04;18.00;;;8.23;;
3647;SDS011;1840;48.892;15.312;2023-06-05T00:17:33;14.80;;;7.40;;
3647;SDS011;1840;48.892;15.312;2023-06-05T00:20:03;14.87;;;7.50;;
3647;SDS011;1840;48.892;15.312;2023-06-05T00:22:38;9.17;;;6.47;;
3647;SDS011;1840;48.892;15.312;2023-06-05T00:25:06;10.33;;;7.27;;
3647;SDS011;1840;48.892;15.312;2023-06-05T00:27:35;12.53;;;7.70;;
3647;SDS011;1840;48.892;15.312;2023-06-05T00:30:04;16.00;;;7.27;;
3647;SDS011;1840;48.892;15.312;2023-06-05T00:32:32;16.00;;;7.50;;
3647;SDS011;1840;48.892;15.312;2023-06-05T00:35:01;13.45;;;7.38;;
3647;SDS011;1840;48.892;15.312;2023-06-05T00:37:29;11.53;;;7.63;;
3647;SDS011;1840;48.892;15.312;2023-06-05T00:39:59;12.57;;;7.80;;
3647;SDS011;1840;48.892;15.312;2023-06-05T00:42:27;13.80;;;7.77;;
3647;SDS011;1840;48.892;15.312;2023-06-05T00:44:55;16.10;;;8.37;;
3647;SDS011;1840;48.892;15.312;2023-06-05T00:47:23;14.27;;;7.93;;
3647;SDS011;1840;48.892;15.312;2023-06-05T00:49:51;13.57;;;7.30;;
3647;SDS011;1840;48.892;15.312;2023-06-05T00:52:20;12.93;;;8.73;;
3647;SDS011;1840;48.892;15.312;2023-06-05T00:54:48;15.83;;;8.27;;
3647;SDS011;1840;48.892;15.312;2023-06-05T00:57:18;14.80;;;8.30;;
3647;SDS011;1840;48.892;15.312;2023-06-05T00:59:46;17.47;;;6.90;;
3647;SDS011;1840;48.892;15.312;2023-06-05T01:02:15;11.93;;;7.90;;
3647;SDS011;1840;48.892;15.312;2023-06-05T01:04:43;16.70;;;9.10;;
3647;SDS011;1840;48.892;15.312;2023-06-05T01:07:13;12.43;;;8.00;;
3647;SDS011;1840;48.892;15.312;2023-06-05T01:09:42;15.20;;;9.00;;
3647;SDS011;1840;48.892;15.312;2023-06-05T01:12:13;13.43;;;7.50;;
3647;SDS011;1840;48.892;15.312;2023-06-05T01:14:47;12.60;;;8.23;;
3647;SDS011;1840;48.892;15.312;2023-06-05T01:17:16;13.80;;;8.70;;
3647;SDS011;1840;48.892;15.312;2023-06-05T01:19:46;12.90;;;7.70;;
3647;SDS011;1840;48.892;15.312;2023-06-05T01:22:16;14.80;;;8.30;;
3647;SDS011;1840;48.892;15.312;2023-06-05T01:24:45;12.87;;;8.40;;
3647;SDS011;1840;48.892;15.312;2023-06-05T01:27:14;10.80;;;7.70;;
3647;SDS011;1840;48.892;15.312;2023-06-05T01:29:51;13.40;;;7.87;;
3647;SDS011;1840;48.892;15.312;2023-06-05T01:32:25;17.30;;;8.33;;
3647;SDS011;1840;48.892;15.312;2023-06-05T01:35:11;15.53;;;8.67;;
3647;SDS011;1840;48.892;15.312;2023-06-05T01:37:43;28.33;;;10.20;;
3647;SDS011;1840;48.892;15.312;2023-06-05T01:40:17;16.07;;;8.40;;
3647;SDS011;1840;48.892;15.312;2023-06-05T01:42:47;17.13;;;8.10;;
3647;SDS011;1840;48.892;15.312;2023-06-05T01:45:16;13.63;;;7.93;;
3647;SDS011;1840;48.892;15.312;2023-06-05T01:47:45;14.43;;;8.90;;
3647;SDS011;1840;48.892;15.312;2023-06-05T01:50:15;23.33;;;9.60;;
3647;SDS011;1840;48.892;15.312;2023-06-05T01:52:43;14.73;;;8.60;;
3647;SDS011;1840;48.892;15.312;2023-06-05T01:55:14;14.20;;;7.87;;
3647;SDS011;1840;48.892;15.312;2023-06-05T01:57:44;16.83;;;8.90;;
3647;SDS011;1840;48.892;15.312;2023-06-05T02:00:12;40.50;;;13.20;;
3647;SDS011;1840;48.892;15.312;2023-06-05T02:02:42;15.80;;;9.23;;
3647;SDS011;1840;48.892;15.312;2023-06-05T02:05:11;22.93;;;9.00;;
3647;SDS011;1840;48.892;15.312;2023-06-05T02:07:41;32.83;;;11.50;;
3647;SDS011;1840;48.892;15.312;2023-06-05T02:10:13;13.90;;;8.97;;
3647;SDS011;1840;48.892;15.312;2023-06-05T02:12:43;18.47;;;9.83;;
3647;SDS011;1840;48.892;15.312;2023-06-05T02:15:11;33.50;;;11.17;;
3647;SDS011;1840;48.892;15.312;2023-06-05T02:17:42;19.50;;;10.27;;
3647;SDS011;1840;48.892;15.312;2023-06-05T02:20:17;13.67;;;8.57;;
3647;SDS011;1840;48.892;15.312;2023-06-05T02:22:46;14.67;;;8.63;;
3647;SDS011;1840;48.892;15.312;2023-06-05T02:25:16;13.33;;;8.80;;
3647;SDS011;1840;48.892;15.312;2023-06-05T02:27:45;13.93;;;8.50;;
3647;SDS011;1840;48.892;15.312;2023-06-05T02:30:14;14.23;;;7.90;;
3647;SDS011;1840;48.892;15.312;2023-06-05T02:32:42;17.20;;;8.33;;
3647;SDS011;1840;48.892;15.312;2023-06-05T02:35:11;12.30;;;8.00;;
3647;SDS011;1840;48.892;15.312;2023-06-05T02:37:39;12.70;;;8.00;;
3647;SDS011;1840;48.892;15.312;2023-06-05T02:40:10;13.60;;;8.50;;
3647;SDS011;1840;48.892;15.312;2023-06-05T02:42:39;20.70;;;9.10;;
3647;SDS011;1840;48.892;15.312;2023-06-05T02:45:09;18.43;;;7.10;;
3647;SDS011;1840;48.892;15.312;2023-06-05T02:47:37;12.47;;;8.30;;
3647;SDS011;1840;48.892;15.312;2023-06-05T02:50:06;13.63;;;7.87;;
3647;SDS011;1840;48.892;15.312;2023-06-05T02:52:35;23.47;;;8.90;;
3647;SDS011;1840;48.892;15.312;2023-06-05T02:55:05;12.90;;;9.03;;
3647;SDS011;1840;48.892;15.312;2023-06-05T02:57:34;15.20;;;8.60;;
3647;SDS011;1840;48.892;15.312;2023-06-05T03:00:10;13.00;;;8.50;;
3647;SDS011;1840;48.892;15.312;2023-06-05T03:02:42;13.60;;;7.50;;
3647;SDS011;1840;48.892;15.312;2023-06-05T03:05:15;16.27;;;8.40;;
3647;SDS011;1840;48.892;15.312;2023-06-05T03:07:51;11.90;;;8.80;;
3647;SDS011;1840;48.892;15.312;2023-06-05T03:10:20;31.37;;;9.57;;
3647;SDS011;1840;48.892;15.312;2023-06-05T03:12:48;22.80;;;9.90;;
3647;SDS011;1840;48.892;15.312;2023-06-05T03:15:18;21.50;;;8.97;;
3647;SDS011;1840;48.892;15.312;2023-06-05T03:17:46;14.80;;;8.10;;
3647;SDS011;1840;48.892;15.312;2023-06-05T03:20:17;13.37;;;8.10;;
3647;SDS011;1840;48.892;15.312;2023-06-05T03:22:45;16.30;;;8.90;;
3647;SDS011;1840;48.892;15.312;2023-06-05T03:25:13;15.57;;;8.27;;
3647;SDS011;1840;48.892;15.312;2023-06-05T03:27:41;14.67;;;9.00;;
3647;SDS011;1840;48.892;15.312;2023-06-05T03:30:10;23.67;;;8.73;;
3647;SDS011;1840;48.892;15.312;2023-06-05T03:32:44;19.20;;;9.00;;
3647;SDS011;1840;48.892;15.312;2023-06-05T03:35:12;14.97;;;8.87;;
3647;SDS011;1840;48.892;15.312;2023-06-05T03:37:40;14.40;;;8.53;;
3647;SDS011;1840;48.892;15.312;2023-06-05T03:40:12;16.43;;;7.90;;
3647;SDS011;1840;48.892;15.312;2023-06-05T03:42:40;18.20;;;9.50;;
3647;SDS011;1840;48.892;15.312;2023-06-05T03:45:08;14.60;;;8.50;;
3647;SDS011;1840;48.892;15.312;2023-06-05T03:47:37;13.87;;;9.23;;
3647;SDS011;1840;48.892;15.312;2023-06-05T03:50:07;13.67;;;8.30;;
3647;SDS011;1840;48.892;15.312;2023-06-05T03:52:35;16.67;;;9.20;;
3647;SDS011;1840;48.892;15.312;2023-06-05T03:55:05;15.00;;;8.30;;
3647;SDS011;1840;48.892;15.312;2023-06-05T03:57:35;14.70;;;8.70;;
3647;SDS011;1840;48.892;15.312;2023-06-05T04:00:05;15.27;;;8.30;;
3647;SDS011;1840;48.892;15.312;2023-06-05T04:02:36;19.60;;;10.23;;
3647;SDS011;1840;48.892;15.312;2023-06-05T04:05:06;17.00;;;9.07;;
3647;SDS011;1840;48.892;15.312;2023-06-05T04:07:38;14.57;;;8.40;;
3647;SDS011;1840;48.892;15.312;2023-06-05T04:10:06;16.80;;;8.27;;
3647;SDS011;1840;48.892;15.312;2023-06-05T04:12:35;17.17;;;8.23;;
3647;SDS011;1840;48.892;15.312;2023-06-05T04:15:03;23.23;;;9.23;;
3647;SDS011;1840;48.892;15.312;2023-06-05T04:17:33;35.10;;;9.40;;
3647;SDS011;1840;48.892;15.312;2023-06-05T04:20:05;34.63;;;10.20;;
3647;SDS011;1840;48.892;15.312;2023-06-05T04:22:40;16.10;;;8.00;;
3647;SDS011;1840;48.892;15.312;2023-06-05T04:25:09;13.17;;;7.67;;
3647;SDS011;1840;48.892;15.312;2023-06-05T04:27:38;12.03;;;8.33;;
3647;SDS011;1840;48.892;15.312;2023-06-05T04:30:08;10.87;;;7.10;;
3647;SDS011;1840;48.892;15.312;2023-06-05T04:32:38;17.30;;;9.17;;
3647;SDS011;1840;48.892;15.312;2023-06-05T04:35:09;28.77;;;12.20;;
3647;SDS011;1840;48.892;15.312;2023-06-05T04:37:38;13.87;;;7.17;;
3647;SDS011;1840;48.892;15.312;2023-06-05T04:40:07;12.90;;;7.87;;
3647;SDS011;1840;48.892;15.312;2023-06-05T04:42:36;18.38;;;8.25;;
3647;SDS011;1840;48.892;15.312;2023-06-05T04:45:05;13.33;;;7.70;;
3647;SDS011;1840;48.892;15.312;2023-06-05T04:47:34;13.60;;;7.20;;
3647;SDS011;1840;48.892;15.312;2023-06-05T04:50:03;14.93;;;8.50;;
3647;SDS011;1840;48.892;15.312;2023-06-05T04:52:34;16.30;;;7.97;;
3647;SDS011;1840;48.892;15.312;2023-06-05T04:55:06;14.97;;;7.20;;
3647;SDS011;1840;48.892;15.312;2023-06-05T04:57:34;17.10;;;7.17;;
3647;SDS011;1840;48.892;15.312;2023-06-05T05:00:03;12.80;;;7.50;;
3647;SDS011;1840;48.892;15.312;2023-06-05T05:02:32;12.63;;;7.00;;
3647;SDS011;1840;48.892;15.312;2023-06-05T05:05:00;15.40;;;8.00;;
3647;SDS011;1840;48.892;15.312;2023-06-05T05:07:32;13.97;;;8.13;;
3647;SDS011;1840;48.892;15.312;2023-06-05T05:10:01;11.77;;;7.50;;
3647;SDS011;1840;48.892;15.312;2023-06-05T05:12:30;20.10;;;7.73;;
3647;SDS011;1840;48.892;15.312;2023-06-05T05:14:58;14.37;;;7.30;;
3647;SDS011;1840;48.892;15.312;2023-06-05T05:17:26;13.97;;;7.70;;
3647;SDS011;1840;48.892;15.312;2023-06-05T05:19:54;11.07;;;7.20;;
3647;SDS011;1840;48.892;15.312;2023-06-05T05:22:22;12.20;;;7.43;;
3647;SDS011;1840;48.892;15.312;2023-06-05T05:24:52;12.73;;;8.00;;
3647;SDS011;1840;48.892;15.312;2023-06-05T05:27:20;14.03;;;7.90;;
3647;SDS011;1840;48.892;15.312;2023-06-05T05:29:48;14.40;;;7.90;;
3647;SDS011;1840;48.892;15.312;2023-06-05T05:32:16;13.23;;;7.27;;
3647;SDS011;1840;48.892;15.312;2023-06-05T05:34:45;13.47;;;8.63;;
3647;SDS011;1840;48.892;15.312;2023-06-05T05:37:13;15.57;;;7.57;;
3647;SDS011;1840;48.892;15.312;2023-06-05T05:39:41;15.87;;;7.90;;
3647;SDS011;1840;48.892;15.312;2023-06-05T05:42:11;11.83;;;7.70;;
3647;SDS011;1840;48.892;15.312;2023-06-05T05:44:41;13.43;;;7.77;;
3647;SDS011;1840;48.892;15.312;2023-06-05T05:47:10;14.97;;;8.03;;
3647;SDS011;1840;48.892;15.312;2023-06-05T05:49:38;12.83;;;7.57;;
3647;SDS011;1840;48.892;15.312;2023-06-05T05:52:06;14.50;;;7.00;;
3647;SDS011;1840;48.892;15.312;2023-06-05T05:54:34;10.10;;;6.87;;
3647;SDS011;1840;48.892;15.312;2023-06-05T05:57:03;14.17;;;7.77;;
3647;SDS011;1840;48.892;15.312;2023-06-05T05:59:33;12.80;;;6.40;;
3647;SDS011;1840;48.892;15.312;2023-06-05T06:02:01;15.10;;;8.20;;
3647;SDS011;1840;48.892;15.312;2023-06-05T06:04:36;12.77;;;8.00;;
3647;SDS011;1840;48.892;15.312;2023-06-05T06:07:04;17.80;;;7.53;;
3647;SDS011;1840;48.892;15.312;2023-06-05T06:09:32;9.73;;;6.33;;
3647;SDS011;1840;48.892;15.312;2023-06-05T06:12:00;11.97;;;7.57;;
3647;SDS011;1840;48.892;15.312;2023-06-05T06:14:33;20.67;;;7.17;;
3647;SDS011;1840;48.892;15.312;2023-06-05T06:17:02;14.90;;;7.13;;
3647;SDS011;1840;48.892;15.312;2023-06-05T06:19:32;13.93;;;7.53;;
3647;SDS011;1840;48.892;15.312;2023-06-05T06:22:00;16.70;;;7.60;;
3647;SDS011;1840;48.892;15.312;2023-06-05T06:24:28;12.73;;;7.30;;
3647;SDS011;1840;48.892;15.312;2023-06-05T06:26:57;12.53;;;8.30;;
3647;SDS011;1840;48.892;15.312;2023-06-05T06:29:25;14.13;;;7.10;;
3647;SDS011;1840;48.892;15.312;2023-06-05T06:31:55;11.30;;;7.27;;
3647;SDS011;1840;48.892;15.312;2023-06-05T06:34:23;18.63;;;8.23;;
3647;SDS011;1840;48.892;15.312;2023-06-05T06:36:52;11.10;;;7.90;;
3647;SDS011;1840;48.892;15.312;2023-06-05T06:39:20;12.40;;;6.97;;
3647;SDS011;1840;48.892;15.312;2023-06-05T06:41:50;13.40;;;7.07;;
3647;SDS011;1840;48.892;15.312;2023-06-05T06:44:19;12.80;;;7.30;;
3647;SDS011;1840;48.892;15.312;2023-06-05T06:46:47;12.37;;;7.07;;
3647;SDS011;1840;48.892;15.312;2023-06-05T06:49:17;15.10;;;7.93;;
3647;SDS011;1840;48.892;15.312;2023-06-05T06:51:45;17.55;;;9.63;;
3647;SDS011;1840;48.892;15.312;2023-06-05T06:54:13;15.10;;;7.13;;
3647;SDS011;1840;48.892;15.312;2023-06-05T06:56:41;20.37;;;7.53;;
3647;SDS011;1840;48.892;15.312;2023-06-05T06:59:11;11.80;;;6.87;;
3647;SDS011;1840;48.892;15.312;2023-06-05T07:01:41;13.33;;;7.40;;
3647;SDS011;1840;48.892;15.312;2023-06-05T07:04:12;11.87;;;7.50;;
3647;SDS011;1840;48.892;15.312;2023-06-05T07:06:44;16.70;;;7.00;;
3647;SDS011;1840;48.892;15.312;2023-06-05T07:09:13;15.30;;;6.93;;
3647;SDS011;1840;48.892;15.312;2023-06-05T07:11:41;20.00;;;8.13;;
3647;SDS011;1840;48.892;15.312;2023-06-05T07:14:09;13.73;;;7.20;;
3647;SDS011;1840;48.892;15.312;2023-06-05T07:16:37;13.43;;;7.60;;
3647;SDS011;1840;48.892;15.312;2023-06-05T07:19:05;17.93;;;7.50;;
3647;SDS011;1840;48.892;15.312;2023-06-05T07:21:34;18.97;;;8.60;;
3647;SDS011;1840;48.892;15.312;2023-06-05T07:24:05;17.23;;;7.20;;
3647;SDS011;1840;48.892;15.312;2023-06-05T07:26:34;12.27;;;7.47;;
3647;SDS011;1840;48.892;15.312;2023-06-05T07:29:02;11.10;;;6.70;;
3647;SDS011;1840;48.892;15.312;2023-06-05T07:31:30;11.17;;;6.47;;
3647;SDS011;1840;48.892;15.312;2023-06-05T07:33:58;14.03;;;6.70;;
3647;SDS011;1840;48.892;15.312;2023-06-05T07:36:26;17.40;;;7.80;;
3647;SDS011;1840;48.892;15.312;2023-06-05T07:38:54;16.40;;;6.73;;
3647;SDS011;1840;48.892;15.312;2023-06-05T07:41:24;12.20;;;7.43;;
3647;SDS011;1840;48.892;15.312;2023-06-05T07:43:53;17.00;;;7.10;;
3647;SDS011;1840;48.892;15.312;2023-06-05T07:46:21;16.50;;;6.57;;
3647;SDS011;1840;48.892;15.312;2023-06-05T07:48:49;12.53;;;7.17;;
3647;SDS011;1840;48.892;15.312;2023-06-05T07:51:17;17.00;;;7.05;;
3647;SDS011;1840;48.892;15.312;2023-06-05T07:53:45;16.40;;;7.30;;
3647;SDS011;1840;48.892;15.312;2023-06-05T07:56:16;11.37;;;5.90;;
3647;SDS011;1840;48.892;15.312;2023-06-05T07:58:46;12.93;;;6.73;;
3647;SDS011;1840;48.892;15.312;2023-06-05T08:01:14;16.50;;;6.67;;
3647;SDS011;1840;48.892;15.312;2023-06-05T08:03:42;13.03;;;8.13;;
3647;SDS011;1840;48.892;15.312;2023-06-05T08:06:10;17.47;;;8.20;;
3647;SDS011;1840;48.892;15.312;2023-06-05T08:08:38;19.63;;;7.30;;
3647;SDS011;1840;48.892;15.312;2023-06-05T08:11:06;14.73;;;7.87;;
3647;SDS011;1840;48.892;15.312;2023-06-05T08:13:36;15.47;;;6.43;;
3647;SDS011;1840;48.892;15.312;2023-06-05T08:16:06;11.70;;;7.47;;
3647;SDS011;1840;48.892;15.312;2023-06-05T08:18:34;11.73;;;6.30;;
3647;SDS011;1840;48.892;15.312;2023-06-05T08:21:02;17.80;;;8.47;;
3647;SDS011;1840;48.892;15.312;2023-06-05T08:23:30;14.60;;;8.10;;
3647;SDS011;1840;48.892;15.312;2023-06-05T08:25:59;12.57;;;7.20;;
3647;SDS011;1840;48.892;15.312;2023-06-05T08:28:27;14.03;;;6.57;;
3647;SDS011;1840;48.892;15.312;2023-06-05T08:30:55;13.97;;;6.90;;
3647;SDS011;1840;48.892;15.312;2023-06-05T08:33:24;13.80;;;6.53;;
3647;SDS011;1840;48.892;15.312;2023-06-05T08:35:53;12.83;;;8.13;;
3647;SDS011;1840;48.892;15.312;2023-06-05T08:38:21;12.37;;;7.30;;
3647;SDS011;1840;48.892;15.312;2023-06-05T08:40:50;11.93;;;6.60;;
3647;SDS011;1840;48.892;15.312;2023-06-05T08:43:23;13.10;;;7.50;;
3647;SDS011;1840;48.892;15.312;2023-06-05T08:45:53;14.10;;;6.33;;
3647;SDS011;1840;48.892;15.312;2023-06-05T08:48:25;13.13;;;6.47;;
3647;SDS011;1840;48.892;15.312;2023-06-05T08:50:53;14.13;;;7.23;;
3647;SDS011;1840;48.892;15.312;2023-06-05T08:53:22;13.70;;;7.23;;
3647;SDS011;1840;48.892;15.312;2023-06-05T08:55:53;11.17;;;7.57;;
3647;SDS011;1840;48.892;15.312;2023-06-05T08:58:22;18.63;;;8.00;;
3647;SDS011;1840;48.892;15.312;2023-06-05T09:00:51;14.97;;;8.20;;
3647;SDS011;1840;48.892;15.312;2023-06-05T09:03:19;15.40;;;8.60;;
3647;SDS011;1840;48.892;15.312;2023-06-05T09:05:49;15.32;;;6.93;;
3647;SDS011;1840;48.892;15.312;2023-06-05T09:08:22;16.30;;;6.80;;
3647;SDS011;1840;48.892;15.312;2023-06-05T09:13:48;10.90;;;6.90;;
3647;SDS011;1840;48.892;15.312;2023-06-05T09:16:18;12.07;;;7.23;;
3647;SDS011;1840;48.892;15.312;2023-06-05T09:18:51;10.63;;;7.07;;
3647;SDS011;1840;48.892;15.312;2023-06-05T09:21:22;10.60;;;7.10;;
3647;SDS011;1840;48.892;15.312;2023-06-05T09:24:11;14.47;;;7.57;;
3647;SDS011;1840;48.892;15.312;2023-06-05T09:26:48;14.67;;;7.20;;
3647;SDS011;1840;48.892;15.312;2023-06-05T09:29:24;13.47;;;8.20;;
3647;SDS011;1840;48.892;15.312;2023-06-05T09:31:54;20.30;;;10.13;;
3647;SDS011;1840;48.892;15.312;2023-06-05T09:34:25;10.50;;;6.97;;
3647;SDS011;1840;48.892;15.312;2023-06-05T09:36:59;13.27;;;7.57;;
3647;SDS011;1840;48.892;15.312;2023-06-05T09:39:29;12.53;;;7.13;;
3647;SDS011;1840;48.892;15.312;2023-06-05T09:41:58;14.07;;;7.17;;
3647;SDS011;1840;48.892;15.312;2023-06-05T09:44:27;11.07;;;6.80;;
3647;SDS011;1840;48.892;15.312;2023-06-05T09:46:57;12.20;;;7.10;;
3647;SDS011;1840;48.892;15.312;2023-06-05T09:49:28;13.07;;;7.83;;
3647;SDS011;1840;48.892;15.312;2023-06-05T09:51:59;11.87;;;7.20;;
3647;SDS011;1840;48.892;15.312;2023-06-05T09:54:29;11.07;;;7.07;;
3647;SDS011;1840;48.892;15.312;2023-06-05T09:56:58;13.20;;;7.27;;
3647;SDS011;1840;48.892;15.312;2023-06-05T09:59:28;13.77;;;7.63;;
3647;SDS011;1840;48.892;15.312;2023-06-05T10:02:00;11.43;;;6.77;;
3647;SDS011;1840;48.892;15.312;2023-06-05T10:04:32;12.47;;;7.50;;
3647;SDS011;1840;48.892;15.312;2023-06-05T10:07:09;31.70;;;8.03;;
3647;SDS011;1840;48.892;15.312;2023-06-05T10:09:38;12.43;;;7.90;;
3647;SDS011;1840;48.892;15.312;2023-06-05T10:12:07;11.70;;;7.40;;
3647;SDS011;1840;48.892;15.312;2023-06-05T10:14:36;11.70;;;7.32;;
3647;SDS011;1840;48.892;15.312;2023-06-05T10:17:09;12.67;;;7.67;;
3647;SDS011;1840;48.892;15.312;2023-06-05T10:19:40;12.40;;;6.87;;
3647;SDS011;1840;48.892;15.312;2023-06-05T10:22:12;11.43;;;7.10;;
3647;SDS011;1840;48.892;15.312;2023-06-05T10:24:42;15.93;;;7.93;;
3647;SDS011;1840;48.892;15.312;2023-06-05T10:27:21;11.53;;;7.27;;
3647;SDS011;1840;48.892;15.312;2023-06-05T10:30:07;10.53;;;7.43;;
3647;SDS011;1840;48.892;15.312;2023-06-05T10:33:17;15.03;;;7.30;;
3647;SDS011;1840;48.892;15.312;2023-06-05T10:35:57;18.57;;;7.70;;
3647;SDS011;1840;48.892;15.312;2023-06-05T10:38:34;11.67;;;7.13;;
3647;SDS011;1840;48.892;15.312;2023-06-05T10:41:05;13.10;;;7.80;;
3647;SDS011;1840;48.892;15.312;2023-06-05T10:43:35;11.37;;;7.23;;
3647;SDS011;1840;48.892;15.312;2023-06-05T10:49:09;14.03;;;8.20;;
3647;SDS011;1840;48.892;15.312;2023-06-05T10:51:39;18.33;;;7.90;;
3647;SDS011;1840;48.892;15.312;2023-06-05T10:54:11;13.77;;;7.77;;
3647;SDS011;1840;48.892;15.312;2023-06-05T10:56:52;17.37;;;9.27;;
3647;SDS011;1840;48.892;15.312;2023-06-05T10:59:22;13.50;;;8.32;;
3647;SDS011;1840;48.892;15.312;2023-06-05T11:05:03;16.57;;;9.77;;
3647;SDS011;1840;48.892;15.312;2023-06-05T11:07:37;17.13;;;9.30;;
3647;SDS011;1840;48.892;15.312;2023-06-05T11:10:08;14.23;;;9.43;;
3647;SDS011;1840;48.892;15.312;2023-06-05T11:12:59;13.88;;;8.55;;
3647;SDS011;1840;48.892;15.312;2023-06-05T11:15:38;28.37;;;9.27;;
3647;SDS011;1840;48.892;15.312;2023-06-05T11:21:03;13.63;;;9.20;;
3647;SDS011;1840;48.892;15.312;2023-06-05T11:23:31;16.20;;;9.40;;
3647;SDS011;1840;48.892;15.312;2023-06-05T11:29:15;17.73;;;10.17;;
3647;SDS011;1840;48.892;15.312;2023-06-05T11:31:44;18.38;;;10.52;;
3647;SDS011;1840;48.892;15.312;2023-06-05T11:34:13;23.23;;;10.90;;
3647;SDS011;1840;48.892;15.312;2023-06-05T11:36:42;13.85;;;10.00;;
3647;SDS011;1840;48.892;15.312;2023-06-05T11:39:11;16.43;;;10.47;;
3647;SDS011;1840;48.892;15.312;2023-06-05T11:41:44;15.13;;;9.63;;
3647;SDS011;1840;48.892;15.312;2023-06-05T11:44:29;15.57;;;9.23;;
3647;SDS011;1840;48.892;15.312;2023-06-05T11:46:59;19.13;;;10.80;;
3647;SDS011;1840;48.892;15.312;2023-06-05T11:49:27;15.75;;;10.18;;
3647;SDS011;1840;48.892;15.312;2023-06-05T11:51:56;21.57;;;10.37;;
3647;SDS011;1840;48.892;15.312;2023-06-05T11:54:25;27.60;;;10.27;;
3647;SDS011;1840;48.892;15.312;2023-06-05T11:56:58;32.47;;;11.33;;
3647;SDS011;1840;48.892;15.312;2023-06-05T11:59:35;13.40;;;10.30;;
3647;SDS011;1840;48.892;15.312;2023-06-05T12:02:04;18.63;;;11.50;;
3647;SDS011;1840;48.892;15.312;2023-06-05T12:04:33;14.75;;;9.85;;
3647;SDS011;1840;48.892;15.312;2023-06-05T12:07:02;14.10;;;10.40;;
3647;SDS011;1840;48.892;15.312;2023-06-05T12:09:30;20.67;;;10.53;;
3647;SDS011;1840;48.892;15.312;2023-06-05T12:12:08;17.27;;;10.03;;
3647;SDS011;1840;48.892;15.312;2023-06-05T12:14:36;19.70;;;10.87;;
3647;SDS011;1840;48.892;15.312;2023-06-05T12:17:10;21.33;;;8.93;;
3647;SDS011;1840;48.892;15.312;2023-06-05T12:19:39;13.03;;;9.53;;
3647;SDS011;1840;48.892;15.312;2023-06-05T12:22:07;15.63;;;10.90;;
3647;SDS011;1840;48.892;15.312;2023-06-05T12:24:36;22.50;;;13.07;;
3647;SDS011;1840;48.892;15.312;2023-06-05T12:27:05;16.50;;;12.10;;
3647;SDS011;1840;48.892;15.312;2023-06-05T12:29:35;15.07;;;10.88;;
3647;SDS011;1840;48.892;15.312;2023-06-05T12:32:19;14.17;;;10.37;;
3647;SDS011;1840;48.892;15.312;2023-06-05T12:34:49;20.70;;;13.43;;
3647;SDS011;1840;48.892;15.312;2023-06-05T12:37:23;21.23;;;12.40;;
3647;SDS011;1840;48.892;15.312;2023-06-05T12:39:54;16.90;;;11.77;;
3647;SDS011;1840;48.892;15.312;2023-06-05T12:42:22;19.50;;;12.70;;
3647;SDS011;1840;48.892;15.312;2023-06-05T12:44:52;18.47;;;10.87;;
3647;SDS011;1840;48.892;15.312;2023-06-05T12:47:20;21.30;;;10.20;;
3647;SDS011;1840;48.892;15.312;2023-06-05T12:49:48;20.90;;;9.77;;
3647;SDS011;1840;48.892;15.312;2023-06-05T12:52:17;15.50;;;10.10;;
3647;SDS011;1840;48.892;15.312;2023-06-05T12:54:52;19.03;;;10.33;;
3647;SDS011;1840;48.892;15.312;2023-06-05T12:57:20;15.77;;;9.13;;
3647;SDS011;1840;48.892;15.312;2023-06-05T12:59:48;22.15;;;10.85;;
3647;SDS011;1840;48.892;15.312;2023-06-05T13:02:18;23.67;;;13.00;;
3647;SDS011;1840;48.892;15.312;2023-06-05T13:04:46;17.23;;;11.33;;
3647;SDS011;1840;48.892;15.312;2023-06-05T13:07:15;14.13;;;9.70;;
3647;SDS011;1840;48.892;15.312;2023-06-05T13:09:44;17.20;;;8.37;;
3647;SDS011;1840;48.892;15.312;2023-06-05T13:12:12;15.07;;;9.73;;
3647;SDS011;1840;48.892;15.312;2023-06-05T13:14:41;13.33;;;8.60;;
3647;SDS011;1840;48.892;15.312;2023-06-05T13:17:09;17.10;;;10.07;;
3647;SDS011;1840;48.892;15.312;2023-06-05T13:19:38;21.63;;;10.60;;
3647;SDS011;1840;48.892;15.312;2023-06-05T13:22:07;19.50;;;9.90;;
3647;SDS011;1840;48.892;15.312;2023-06-05T13:24:35;15.35;;;9.68;;
3647;SDS011;1840;48.892;15.312;2023-06-05T13:27:04;19.50;;;10.73;;
3647;SDS011;1840;48.892;15.312;2023-06-05T13:29:33;21.87;;;9.70;;
3647;SDS011;1840;48.892;15.312;2023-06-05T13:32:01;17.70;;;10.20;;
3647;SDS011;1840;48.892;15.312;2023-06-05T13:34:29;16.23;;;9.77;;
3647;SDS011;1840;48.892;15.312;2023-06-05T13:37:00;19.60;;;9.80;;
3647;SDS011;1840;48.892;15.312;2023-06-05T13:39:39;14.50;;;9.30;;
3647;SDS011;1840;48.892;15.312;2023-06-05T13:42:07;16.77;;;10.60;;
3647;SDS011;1840;48.892;15.312;2023-06-05T13:44:36;17.80;;;10.80;;
3647;SDS011;1840;48.892;15.312;2023-06-05T13:47:05;27.37;;;10.37;;
3647;SDS011;1840;48.892;15.312;2023-06-05T13:49:35;16.73;;;9.63;;
3647;SDS011;1840;48.892;15.312;2023-06-05T13:52:04;17.10;;;9.73;;
3647;SDS011;1840;48.892;15.312;2023-06-05T13:54:33;18.20;;;9.97;;
3647;SDS011;1840;48.892;15.312;2023-06-05T13:57:01;15.47;;;10.37;;
3647;SDS011;1840;48.892;15.312;2023-06-05T13:59:30;15.50;;;10.00;;
3647;SDS011;1840;48.892;15.312;2023-06-05T14:01:58;14.83;;;10.07;;
3647;SDS011;1840;48.892;15.312;2023-06-05T14:04:26;17.97;;;11.40;;
3647;SDS011;1840;48.892;15.312;2023-06-05T14:06:55;16.20;;;10.13;;
3647;SDS011;1840;48.892;15.312;2023-06-05T14:09:26;20.30;;;10.97;;
3647;SDS011;1840;48.892;15.312;2023-06-05T14:11:55;14.90;;;10.53;;
3647;SDS011;1840;48.892;15.312;2023-06-05T14:14:24;15.83;;;10.53;;
3647;SDS011;1840;48.892;15.312;2023-06-05T14:16:52;14.40;;;10.00;;
3647;SDS011;1840;48.892;15.312;2023-06-05T14:19:20;14.60;;;10.80;;
3647;SDS011;1840;48.892;15.312;2023-06-05T14:21:48;18.60;;;10.67;;
3647;SDS011;1840;48.892;15.312;2023-06-05T14:24:16;19.03;;;9.97;;
3647;SDS011;1840;48.892;15.312;2023-06-05T14:26:47;20.20;;;10.47;;
3647;SDS011;1840;48.892;15.312;2023-06-05T14:29:15;13.77;;;9.53;;
3647;SDS011;1840;48.892;15.312;2023-06-05T14:31:43;17.50;;;10.53;;
3647;SDS011;1840;48.892;15.312;2023-06-05T14:34:12;15.77;;;10.13;;
3647;SDS011;1840;48.892;15.312;2023-06-05T14:36:40;15.67;;;9.60;;
3647;SDS011;1840;48.892;15.312;2023-06-05T14:39:16;17.90;;;9.40;;
3647;SDS011;1840;48.892;15.312;2023-06-05T14:41:46;24.43;;;10.83;;
3647;SDS011;1840;48.892;15.312;2023-06-05T14:44:14;16.97;;;9.90;;
3647;SDS011;1840;48.892;15.312;2023-06-05T14:46:49;15.40;;;9.00;;
3647;SDS011;1840;48.892;15.312;2023-06-05T14:49:17;21.20;;;12.80;;
3647;SDS011;1840;48.892;15.312;2023-06-05T14:51:46;18.60;;;13.87;;
3647;SDS011;1840;48.892;15.312;2023-06-05T14:54:14;20.47;;;14.93;;
3647;SDS011;1840;48.892;15.312;2023-06-05T14:56:42;27.07;;;11.23;;
3647;SDS011;1840;48.892;15.312;2023-06-05T14:59:13;23.90;;;13.97;;
3647;SDS011;1840;48.892;15.312;2023-06-05T15:01:45;36.50;;;19.20;;
3647;SDS011;1840;48.892;15.312;2023-06-05T15:04:13;30.40;;;17.40;;
3647;SDS011;1840;48.892;15.312;2023-06-05T15:06:41;24.10;;;15.23;;
3647;SDS011;1840;48.892;15.312;2023-06-05T15:09:09;32.13;;;16.80;;
3647;SDS011;1840;48.892;15.312;2023-06-05T15:11:37;32.97;;;19.27;;
3647;SDS011;1840;48.892;15.312;2023-06-05T15:14:05;18.30;;;13.60;;
3647;SDS011;1840;48.892;15.312;2023-06-05T15:16:35;16.20;;;10.80;;